Time;durP1;ratioP1;P1;durP2;ratioP2;P2;SDS_P1;SDS_P2;PMS_P1;PMS_P2;Temp;Humidity;BMP_temperature;BMP_pressure;BME280_temperature;BME280_humidity;BME280_pressure;Samples;Min_cycle;Max_cycle;Signal;HPM_P1;HPM_P2
2021/04/16 00:01:07;;;;;;;7.22;5.05;;;6.00;99.90;;;;;;5070203;28;20028;-67
2021/04/16 00:03:33;;;;;;;8.07;4.75;;;5.90;99.90;;;;;;5075839;28;20457;-67
2021/04/16 00:05:59;;;;;;;7.30;5.50;;;5.90;99.90;;;;;;5077428;28;20043;-67
2021/04/16 00:08:30;;;;;;;9.07;5.20;;;5.90;99.90;;;;;;5081658;28;20027;-67
2021/04/16 00:10:59;;;;;;;9.82;5.78;;;5.80;99.90;;;;;;5081228;28;20048;-67
2021/04/16 00:13:25;;;;;;;9.35;5.00;;;5.80;99.90;;;;;;5064616;28;20025;-67
2021/04/16 00:15:52;;;;;;;8.50;5.20;;;5.70;99.90;;;;;;5073466;28;20029;-67
2021/04/16 00:18:21;;;;;;;8.73;5.15;;;5.70;99.90;;;;;;5071336;28;20035;-67
2021/04/16 00:20:46;;;;;;;7.13;5.60;;;5.70;99.90;;;;;;5069683;28;20504;-67
2021/04/16 00:23:13;;;;;;;6.50;5.72;;;5.70;99.90;;;;;;5064940;28;20106;-67
2021/04/16 00:25:39;;;;;;;9.73;5.95;;;5.80;99.90;;;;;;5072541;28;20060;-67
2021/04/16 00:28:06;;;;;;;9.13;5.60;;;5.80;99.90;;;;;;5075036;28;20033;-67
2021/04/16 00:30:39;;;;;;;9.10;5.43;;;5.80;99.90;;;;;;5070298;28;20519;-67
2021/04/16 00:33:06;;;;;;;9.55;5.30;;;5.70;99.90;;;;;;5069013;28;20028;-67
2021/04/16 00:35:31;;;;;;;8.02;5.03;;;5.60;99.90;;;;;;5072132;28;20039;-67
2021/04/16 00:37:59;;;;;;;8.05;5.18;;;5.70;99.90;;;;;;5073276;28;20485;-67
2021/04/16 00:40:29;;;;;;;7.07;4.47;;;5.60;99.90;;;;;;5072245;28;20020;-67
2021/04/16 00:42:57;;;;;;;10.05;4.70;;;5.60;99.90;;;;;;5072745;28;20111;-67
2021/04/16 00:45:25;;;;;;;6.07;4.55;;;5.50;99.90;;;;;;5075715;28;20021;-67
2021/04/16 00:47:54;;;;;;;7.55;4.82;;;5.50;99.90;;;;;;5066404;28;20020;-67
2021/04/16 00:50:26;;;;;;;8.40;5.38;;;5.50;99.90;;;;;;5069804;28;20028;-67
2021/04/16 00:52:52;;;;;;;9.02;5.30;;;5.50;99.90;;;;;;5068012;28;20044;-67
2021/04/16 00:55:18;;;;;;;6.78;4.60;;;5.50;99.90;;;;;;5069659;28;20103;-67
2021/04/16 00:57:45;;;;;;;7.05;5.10;;;5.50;99.90;;;;;;5072202;28;20078;-67
2021/04/16 01:00:12;;;;;;;8.48;5.07;;;5.50;99.90;;;;;;5072100;28;20028;-67
2021/04/16 01:02:37;;;;;;;10.05;5.15;;;5.50;99.90;;;;;;5078258;28;20012;-67
2021/04/16 01:05:06;;;;;;;5.68;4.38;;;5.50;99.90;;;;;;5065362;28;20354;-67
2021/04/16 01:07:32;;;;;;;8.43;4.80;;;5.40;99.90;;;;;;5067344;28;20021;-67
2021/04/16 01:09:58;;;;;;;6.03;4.40;;;5.40;99.90;;;;;;5067689;28;20029;-67
2021/04/16 01:12:24;;;;;;;7.30;4.88;;;5.40;99.90;;;;;;5063314;28;20374;-67
2021/04/16 01:14:57;;;;;;;8.50;5.20;;;5.40;99.90;;;;;;5069188;28;20028;-68
2021/04/16 01:17:24;;;;;;;7.18;4.95;;;5.40;99.90;;;;;;5073583;28;20408;-68
2021/04/16 01:20:03;;;;;;;7.47;4.65;;;5.40;99.90;;;;;;5061081;28;20040;-67
2021/04/16 01:22:45;;;;;;;7.43;5.03;;;5.30;99.90;;;;;;5068508;28;20013;-68
2021/04/16 01:25:12;;;;;;;8.98;5.35;;;5.30;99.90;;;;;;5070589;28;20040;-68
2021/04/16 01:27:38;;;;;;;7.72;4.97;;;5.30;99.90;;;;;;5061167;28;20032;-68
2021/04/16 01:30:10;;;;;;;8.82;4.60;;;5.20;99.90;;;;;;5071188;28;20024;-68
2021/04/16 01:32:36;;;;;;;7.75;5.18;;;5.20;99.90;;;;;;5065288;28;20033;-68
2021/04/16 01:35:18;;;;;;;7.35;5.10;;;5.10;99.90;;;;;;5069494;28;20350;-67
2021/04/16 01:37:44;;;;;;;7.45;4.90;;;5.10;99.90;;;;;;5059332;28;20020;-68
2021/04/16 01:40:12;;;;;;;7.53;4.53;;;5.00;99.90;;;;;;5070849;28;20027;-68
2021/04/16 01:42:38;;;;;;;7.63;5.30;;;5.10;99.90;;;;;;5073447;28;20035;-67
2021/04/16 01:45:06;;;;;;;6.80;4.70;;;5.00;99.90;;;;;;5062890;28;20016;-68
2021/04/16 01:47:31;;;;;;;8.77;4.93;;;4.80;99.90;;;;;;5072690;28;20024;-68
2021/04/16 01:49:57;;;;;;;6.05;4.95;;;4.90;99.90;;;;;;5068849;28;20017;-68
2021/04/16 01:52:31;;;;;;;10.40;5.28;;;4.90;99.90;;;;;;5072468;28;20041;-68
2021/04/16 01:54:58;;;;;;;8.43;5.00;;;4.70;99.90;;;;;;5065687;28;20058;-68
2021/04/16 01:57:27;;;;;;;7.05;4.40;;;4.70;99.90;;;;;;5070396;28;20040;-68
2021/04/16 01:59:54;;;;;;;11.40;4.95;;;4.60;99.90;;;;;;5067103;28;20025;-68
2021/04/16 02:02:23;;;;;;;6.60;4.70;;;4.60;99.90;;;;;;5063004;28;20013;-68
2021/04/16 02:04:49;;;;;;;7.82;4.57;;;4.60;99.90;;;;;;5070424;28;20039;-68
2021/04/16 02:07:14;;;;;;;9.98;4.80;;;4.50;99.90;;;;;;5071465;28;20032;-68
2021/04/16 02:09:41;;;;;;;6.93;5.20;;;4.60;99.90;;;;;;5074650;28;20350;-68
2021/04/16 02:12:09;;;;;;;6.25;4.60;;;4.50;99.90;;;;;;5061855;28;20044;-68
2021/04/16 02:14:35;;;;;;;5.90;4.40;;;4.50;99.90;;;;;;5071666;28;20021;-68
2021/04/16 02:17:17;;;;;;;7.50;4.95;;;4.50;99.90;;;;;;5073273;28;20115;-68
2021/04/16 02:19:44;;;;;;;7.32;4.55;;;4.50;99.90;;;;;;5062483;28;20477;-68
2021/04/16 02:22:13;;;;;;;4.72;4.22;;;4.40;99.90;;;;;;5070518;28;20390;-68
2021/04/16 02:24:39;;;;;;;6.38;5.40;;;4.50;99.90;;;;;;5072863;28;20028;-68
2021/04/16 02:27:06;;;;;;;5.45;4.70;;;4.50;99.90;;;;;;5070276;28;20105;-68
2021/04/16 02:29:31;;;;;;;5.63;4.75;;;4.50;99.90;;;;;;5065049;28;20115;-68
2021/04/16 02:31:57;;;;;;;7.70;5.22;;;4.40;99.90;;;;;;5066171;28;20135;-68
2021/04/16 02:34:25;;;;;;;7.60;4.80;;;4.40;99.90;;;;;;5072636;28;20021;-68
2021/04/16 02:36:54;;;;;;;6.15;4.53;;;4.40;99.90;;;;;;5061681;28;20075;-68
2021/04/16 02:39:21;;;;;;;7.80;4.78;;;4.30;99.90;;;;;;5070100;28;20534;-68
2021/04/16 02:41:47;;;;;;;7.88;4.30;;;4.30;99.90;;;;;;5073689;28;20036;-68
2021/04/16 02:44:12;;;;;;;8.25;4.93;;;4.30;99.90;;;;;;5062068;28;20029;-68
2021/04/16 02:46:39;;;;;;;7.80;5.18;;;4.30;99.90;;;;;;5065049;28;20108;-68
2021/04/16 02:49:05;;;;;;;12.40;5.40;;;4.20;99.90;;;;;;5069143;28;20078;-68
2021/04/16 02:51:31;;;;;;;8.00;4.82;;;4.20;99.90;;;;;;5059563;28;20029;-68
2021/04/16 02:53:57;;;;;;;6.43;4.53;;;4.20;99.90;;;;;;5070938;28;20039;-68
2021/04/16 02:56:23;;;;;;;9.65;4.88;;;4.20;99.90;;;;;;5064760;28;20060;-68
2021/04/16 02:58:49;;;;;;;5.22;4.45;;;4.10;99.90;;;;;;5073324;28;20092;-68
2021/04/16 03:01:15;;;;;;;6.68;4.50;;;4.10;99.90;;;;;;5074255;28;20515;-69
2021/04/16 03:03:40;;;;;;;6.53;4.35;;;4.00;99.90;;;;;;5067929;28;20056;-68
2021/04/16 03:06:07;;;;;;;6.97;4.43;;;4.00;99.90;;;;;;5070687;28;20032;-68
2021/04/16 03:08:33;;;;;;;8.05;4.88;;;4.00;99.90;;;;;;5073699;28;20363;-68
2021/04/16 03:10:59;;;;;;;6.43;4.45;;;4.00;99.90;;;;;;5074364;28;20131;-68
2021/04/16 03:13:25;;;;;;;7.70;4.60;;;4.00;99.90;;;;;;5075451;28;20484;-68
2021/04/16 03:15:51;;;;;;;5.88;4.68;;;3.90;99.90;;;;;;5063742;28;20092;-68
2021/04/16 03:18:17;;;;;;;5.80;4.43;;;3.90;99.90;;;;;;5075014;28;20032;-68
2021/04/16 03:20:44;;;;;;;6.53;5.00;;;3.90;99.90;;;;;;5073410;28;20025;-68
2021/04/16 03:23:10;;;;;;;11.32;5.07;;;3.80;99.90;;;;;;5069827;28;20058;-68
2021/04/16 03:25:35;;;;;;;7.22;4.60;;;3.80;99.90;;;;;;5075071;28;20036;-68
2021/04/16 03:28:01;;;;;;;6.75;4.78;;;3.80;99.90;;;;;;5074805;28;20024;-68
2021/04/16 03:30:28;;;;;;;5.55;4.65;;;3.80;99.90;;;;;;5068307;28;20111;-67
2021/04/16 03:32:54;;;;;;;11.05;4.82;;;3.70;99.90;;;;;;5073475;28;20480;-69
2021/04/16 03:35:20;;;;;;;5.43;4.70;;;3.70;99.90;;;;;;5071075;28;20031;-68
2021/04/16 03:37:46;;;;;;;7.53;4.88;;;3.70;99.90;;;;;;5071858;28;20025;-68
2021/04/16 03:40:15;;;;;;;6.70;4.85;;;3.70;99.90;;;;;;5069172;28;20024;-68
2021/04/16 03:42:41;;;;;;;7.00;4.63;;;3.70;99.90;;;;;;5064539;28;20067;-68
2021/04/16 03:45:08;;;;;;;6.93;4.55;;;3.70;99.90;;;;;;5072383;28;20056;-68
2021/04/16 03:47:33;;;;;;;6.85;4.55;;;3.70;99.90;;;;;;5073104;28;20040;-68
2021/04/16 03:50:00;;;;;;;6.20;4.85;;;3.60;99.90;;;;;;5070433;28;20025;-68
2021/04/16 03:52:27;;;;;;;5.47;4.45;;;3.60;99.90;;;;;;5072682;28;20033;-68
2021/04/16 03:54:54;;;;;;;7.90;5.03;;;3.60;99.90;;;;;;5075058;28;20079;-68
2021/04/16 03:57:20;;;;;;;7.45;4.70;;;3.60;99.90;;;;;;5076453;28;20029;-68
2021/04/16 03:59:46;;;;;;;7.82;4.45;;;3.60;99.90;;;;;;5074075;28;20056;-68
2021/04/16 04:02:13;;;;;;;6.97;4.30;;;3.60;99.90;;;;;;5064880;28;20047;-68
2021/04/16 04:04:38;;;;;;;5.90;4.35;;;3.60;99.90;;;;;;5074162;28;20073;-68
2021/04/16 04:07:04;;;;;;;6.65;4.60;;;3.60;99.90;;;;;;5065417;28;20111;-67
2021/04/16 04:09:30;;;;;;;5.85;4.40;;;3.70;99.90;;;;;;5068863;28;20032;-68
2021/04/16 04:11:55;;;;;;;8.10;4.40;;;3.60;99.90;;;;;;5066054;28;20851;-68
2021/04/16 04:14:22;;;;;;;6.00;4.82;;;3.60;99.90;;;;;;5074698;28;20072;-68
2021/04/16 04:17:27;;;;;;;7.65;4.55;;;3.60;99.90;;;;;;5070794;28;20060;-68
2021/04/16 04:19:52;;;;;;;8.52;5.35;;;3.60;99.90;;;;;;5072622;28;20024;-68
2021/04/16 04:22:18;;;;;;;9.82;5.05;;;3.60;99.90;;;;;;5066685;28;20529;-68
2021/04/16 04:24:44;;;;;;;13.55;5.63;;;3.70;99.90;;;;;;5072096;28;20020;-68
2021/04/16 04:27:10;;;;;;;9.80;5.00;;;3.60;99.90;;;;;;5064561;28;20055;-68
2021/04/16 04:29:36;;;;;;;7.07;4.97;;;3.60;99.90;;;;;;5072833;28;20353;-68
2021/04/16 04:32:02;;;;;;;7.78;4.60;;;3.60;99.90;;;;;;5067336;28;20167;-68
2021/04/16 04:34:28;;;;;;;7.35;4.78;;;3.50;99.90;;;;;;5072853;28;20017;-68
2021/04/16 04:36:57;;;;;;;7.20;4.28;;;3.60;99.90;;;;;;5065648;28;20027;-68
2021/04/16 04:39:25;;;;;;;7.60;4.57;;;3.60;99.90;;;;;;5068104;28;20020;-68
2021/04/16 04:41:51;;;;;;;5.78;4.68;;;3.60;99.90;;;;;;5068017;28;20484;-68
2021/04/16 04:44:17;;;;;;;6.32;4.78;;;3.60;99.90;;;;;;5058697;28;20024;-68
2021/04/16 04:46:43;;;;;;;5.95;4.53;;;3.60;99.90;;;;;;5072903;28;20040;-68
2021/04/16 04:49:09;;;;;;;8.40;4.55;;;3.60;99.90;;;;;;5069729;28;20047;-68
2021/04/16 04:51:37;;;;;;;7.18;5.15;;;3.60;99.90;;;;;;5067319;28;20511;-68
2021/04/16 04:54:04;;;;;;;9.18;5.20;;;3.60;99.90;;;;;;5067121;28;20033;-68
2021/04/16 04:56:30;;;;;;;8.52;4.90;;;3.60;99.90;;;;;;5064209;28;20025;-68
2021/04/16 04:58:55;;;;;;;8.65;5.00;;;3.60;99.90;;;;;;5074815;28;20027;-68
2021/04/16 05:01:21;;;;;;;7.63;4.93;;;3.50;99.90;;;;;;5070428;28;20031;-68
2021/04/16 05:03:47;;;;;;;7.65;4.13;;;3.60;99.90;;;;;;5072641;28;20021;-68
2021/04/16 05:06:12;;;;;;;6.80;5.07;;;3.60;99.90;;;;;;5073717;28;20056;-68
2021/04/16 05:08:38;;;;;;;6.70;5.03;;;3.60;99.90;;;;;;5065315;28;20036;-68
2021/04/16 05:11:05;;;;;;;9.27;5.30;;;3.60;99.90;;;;;;5069882;28;20041;-68
2021/04/16 05:13:31;;;;;;;8.65;5.40;;;3.60;99.90;;;;;;5072838;28;20017;-68
2021/04/16 05:15:57;;;;;;;8.55;4.97;;;3.70;99.90;;;;;;5069844;28;20028;-68
2021/04/16 05:18:23;;;;;;;7.22;4.72;;;3.70;99.90;;;;;;5068915;28;20021;-68
2021/04/16 05:20:48;;;;;;;5.95;4.88;;;3.70;99.90;;;;;;5065800;28;20074;-68
2021/04/16 05:23:14;;;;;;;6.25;4.53;;;3.70;99.90;;;;;;5070197;28;20077;-68
2021/04/16 05:25:40;;;;;;;6.72;5.40;;;3.80;99.90;;;;;;5073716;28;20031;-68
2021/04/16 05:28:05;;;;;;;11.90;5.35;;;3.80;99.90;;;;;;5067459;28;20488;-68
2021/04/16 05:30:31;;;;;;;9.63;5.57;;;3.90;99.90;;;;;;5072200;28;20020;-68
2021/04/16 05:32:57;;;;;;;7.60;5.85;;;3.90;99.90;;;;;;5071379;28;20397;-68
2021/04/16 05:35:23;;;;;;;8.88;5.70;;;4.00;99.90;;;;;;5067200;28;20032;-68
2021/04/16 05:37:48;;;;;;;7.93;5.30;;;4.00;99.90;;;;;;5069190;28;20025;-67
2021/04/16 05:40:14;;;;;;;15.75;5.00;;;4.10;99.90;;;;;;5074203;28;20070;-68
2021/04/16 05:42:40;;;;;;;9.48;5.38;;;4.10;99.90;;;;;;5060015;28;20496;-68
2021/04/16 05:45:07;;;;;;;7.65;5.03;;;4.10;99.90;;;;;;5070600;28;20194;-69
2021/04/16 05:47:33;;;;;;;9.77;5.10;;;4.00;99.90;;;;;;5070271;28;20511;-68
2021/04/16 05:49:59;;;;;;;8.80;5.82;;;4.10;99.90;;;;;;5065897;28;20029;-69
2021/04/16 05:52:25;;;;;;;9.70;6.05;;;4.10;99.90;;;;;;5070639;28;20044;-68
2021/04/16 05:54:50;;;;;;;6.97;4.78;;;4.10;99.90;;;;;;5070321;28;20028;-68
2021/04/16 05:57:16;;;;;;;8.88;5.70;;;4.10;99.90;;;;;;5073249;28;20057;-67
2021/04/16 05:59:43;;;;;;;8.05;5.55;;;4.20;99.90;;;;;;5060910;28;20078;-69
2021/04/16 06:02:26;;;;;;;9.32;5.30;;;4.10;99.90;;;;;;5071073;28;20032;-68
2021/04/16 06:04:53;;;;;;;9.98;5.88;;;4.10;99.90;;;;;;5062764;28;20016;-68
2021/04/16 06:07:19;;;;;;;13.07;6.53;;;4.20;99.90;;;;;;5073095;28;20073;-68
2021/04/16 06:09:45;;;;;;;10.65;5.13;;;4.30;99.90;;;;;;5069046;28;20024;-68
2021/04/16 06:12:11;;;;;;;10.85;5.38;;;4.20;99.90;;;;;;5062480;28;20500;-68
2021/04/16 06:14:37;;;;;;;9.95;5.70;;;4.20;99.90;;;;;;5072718;28;20035;-68
2021/04/16 06:17:03;;;;;;;14.10;5.50;;;4.30;99.90;;;;;;5071695;28;20036;-68
2021/04/16 06:19:28;;;;;;;13.43;5.95;;;4.30;99.90;;;;;;5064580;28;20493;-69
2021/04/16 06:21:54;;;;;;;24.17;6.60;;;4.30;99.90;;;;;;5064453;28;20025;-69
2021/04/16 06:24:19;;;;;;;12.07;6.10;;;4.40;99.90;;;;;;5067914;28;20362;-68
2021/04/16 06:26:45;;;;;;;30.33;6.68;;;4.50;99.90;;;;;;5066070;28;20441;-68
2021/04/16 06:29:10;;;;;;;8.52;5.68;;;4.60;99.90;;;;;;5062921;28;20086;-67
2021/04/16 06:31:36;;;;;;;9.07;4.82;;;4.50;99.90;;;;;;5070413;28;20051;-67
2021/04/16 06:34:01;;;;;;;6.63;5.40;;;4.60;99.90;;;;;;5074417;28;20107;-67
2021/04/16 06:36:27;;;;;;;8.60;5.28;;;4.60;99.90;;;;;;5070046;28;20025;-67
2021/04/16 06:38:53;;;;;;;15.13;5.30;;;4.70;99.90;;;;;;5075501;28;20029;-67
2021/04/16 06:41:27;;;;;;;10.02;5.70;;;4.70;99.90;;;;;;5076256;28;20025;-67
2021/04/16 06:44:08;;;;;;;8.93;5.30;;;4.70;99.90;;;;;;5068787;28;20035;-67
2021/04/16 06:46:45;;;;;;;8.70;5.50;;;4.80;99.90;;;;;;5074839;28;20043;-67
2021/04/16 06:49:15;;;;;;;10.88;5.65;;;4.90;99.90;;;;;;5076638;28;20533;-68
2021/04/16 06:52:01;;;;;;;12.35;5.90;;;5.00;99.90;;;;;;5071381;28;20036;-67
2021/04/16 06:54:51;;;;;;;10.90;5.70;;;5.20;99.90;;;;;;5070027;28;20111;-67
2021/04/16 06:57:26;;;;;;;10.68;6.10;;;5.20;99.90;;;;;;5070587;28;20055;-67
2021/04/16 07:00:05;;;;;;;13.32;6.38;;;5.30;99.90;;;;;;5062746;28;20021;-68
2021/04/16 07:02:39;;;;;;;8.38;6.05;;;5.30;99.90;;;;;;5069608;28;20024;-68
2021/04/16 07:05:18;;;;;;;9.63;6.45;;;5.40;99.90;;;;;;5065163;28;20111;-67
2021/04/16 07:07:47;;;;;;;9.23;5.72;;;5.30;99.90;;;;;;5069996;28;20434;-67
2021/04/16 07:10:21;;;;;;;11.80;6.68;;;5.40;99.90;;;;;;5078848;28;20085;-67
2021/04/16 07:12:50;;;;;;;10.80;6.50;;;5.60;99.90;;;;;;5074883;28;20032;-67
2021/04/16 07:15:20;;;;;;;12.70;6.70;;;5.60;99.90;;;;;;5067843;28;20025;-67
2021/04/16 07:17:47;;;;;;;10.75;5.72;;;5.60;99.90;;;;;;5071976;28;20107;-67
2021/04/16 07:20:18;;;;;;;8.82;6.00;;;5.70;99.90;;;;;;5075027;28;20066;-67
2021/04/16 07:22:47;;;;;;;16.55;7.10;;;5.90;99.90;;;;;;5069668;28;20051;-67
2021/04/16 07:25:31;;;;;;;21.52;7.60;;;5.90;99.90;;;;;;5075742;28;20763;-67
2021/04/16 07:28:00;;;;;;;15.95;7.30;;;6.10;99.90;;;;;;5071808;28;20037;-68
2021/04/16 07:30:30;;;;;;;15.50;7.63;;;6.30;99.90;;;;;;5073688;28;20107;-68
2021/04/16 07:32:58;;;;;;;11.18;6.60;;;6.50;99.90;;;;;;5065371;28;20044;-69
2021/04/16 07:35:32;;;;;;;8.45;6.07;;;6.70;99.90;;;;;;5071874;28;20020;-69
2021/04/16 07:38:06;;;;;;;9.25;6.15;;;6.90;99.90;;;;;;5069715;28;20035;-68
2021/04/16 07:40:34;;;;;;;10.98;6.18;;;6.80;99.90;;;;;;5071258;28;20099;-68
2021/04/16 07:43:00;;;;;;;10.38;5.93;;;7.00;99.90;;;;;;5054594;28;20107;-68
2021/04/16 07:45:25;;;;;;;9.85;6.68;;;7.20;99.90;;;;;;5067259;28;20544;-69
2021/04/16 07:48:33;;;;;;;14.15;6.85;;;7.30;99.90;;;;;;5069798;28;20028;-69
2021/04/16 07:51:02;;;;;;;11.82;5.85;;;7.40;99.90;;;;;;5065276;28;20028;-68
2021/04/16 07:53:36;;;;;;;11.52;5.95;;;7.60;99.90;;;;;;5073963;28;20392;-68
2021/04/16 07:56:17;;;;;;;9.25;6.20;;;7.60;99.90;;;;;;5076960;28;20027;-69
2021/04/16 07:59:10;;;;;;;10.25;6.05;;;7.90;99.90;;;;;;5070854;28;20408;-69
2021/04/16 08:01:39;;;;;;;9.90;6.13;;;7.90;99.90;;;;;;5072376;28;20449;-68
2021/04/16 08:04:10;;;;;;;13.77;6.05;;;8.20;99.90;;;;;;5070548;28;20305;-68
2021/04/16 08:06:44;;;;;;;8.13;6.05;;;8.20;99.90;;;;;;5070300;28;20115;-69
2021/04/16 08:09:25;;;;;;;9.85;6.05;;;8.30;99.90;;;;;;5064731;28;20100;-68
2021/04/16 08:12:00;;;;;;;12.25;7.38;;;8.50;99.90;;;;;;5070829;28;20029;-69
2021/04/16 08:14:33;;;;;;;11.35;6.63;;;8.70;99.90;;;;;;5067915;28;20028;-69
2021/04/16 08:17:14;;;;;;;12.85;6.00;;;8.90;99.90;;;;;;5066768;28;20032;-68
2021/04/16 08:19:39;;;;;;;13.70;6.10;;;9.00;99.90;;;;;;5065417;28;20029;-69
2021/04/16 08:22:15;;;;;;;12.20;6.55;;;9.10;99.90;;;;;;5069842;28;20021;-68
2021/04/16 08:24:55;;;;;;;8.65;6.43;;;9.10;99.90;;;;;;5061040;28;20029;-68
2021/04/16 08:27:58;;;;;;;16.60;7.07;;;9.10;99.90;;;;;;5075778;28;20056;-68
2021/04/16 08:30:48;;;;;;;9.95;6.50;;;9.10;99.90;;;;;;5069672;28;20091;-68
2021/04/16 08:33:25;;;;;;;13.35;7.15;;;9.40;99.90;;;;;;5064317;28;20040;-68
2021/04/16 08:36:31;;;;;;;11.05;6.93;;;9.60;99.90;;;;;;5074316;28;20473;-68
2021/04/16 08:39:17;;;;;;;11.32;6.90;;;9.80;99.90;;;;;;5087180;28;20149;-68
2021/04/16 08:41:50;;;;;;;12.35;7.03;;;9.70;99.90;;;;;;5077517;28;20126;-68
2021/04/16 08:44:16;;;;;;;10.10;6.18;;;9.80;99.90;;;;;;5073753;28;20024;-68
2021/04/16 08:46:45;;;;;;;11.93;6.40;;;9.90;99.90;;;;;;5071341;28;20103;-68
2021/04/16 08:49:25;;;;;;;11.82;7.28;;;10.00;99.90;;;;;;5061250;28;20025;-68
2021/04/16 08:52:22;;;;;;;10.75;6.65;;;10.10;99.90;;;;;;5066089;28;20048;-68
2021/04/16 08:54:51;;;;;;;9.07;6.18;;;10.30;99.90;;;;;;5064061;28;20362;-68
2021/04/16 08:57:22;;;;;;;9.82;5.85;;;10.60;99.90;;;;;;5079764;28;20032;-68
2021/04/16 09:00:05;;;;;;;9.60;6.47;;;10.70;99.90;;;;;;5071720;28;20429;-68
2021/04/16 09:02:37;;;;;;;10.38;6.60;;;10.50;99.90;;;;;;5075203;28;20384;-68
2021/04/16 09:05:16;;;;;;;11.30;5.93;;;10.70;99.90;;;;;;5077379;28;20465;-68
2021/04/16 09:07:51;;;;;;;9.35;5.75;;;10.90;99.90;;;;;;5066922;28;20055;-68
2021/04/16 09:10:17;;;;;;;8.68;5.35;;;11.00;99.90;;;;;;5071717;28;20069;-68
2021/04/16 09:12:46;;;;;;;7.78;5.10;;;11.10;99.90;;;;;;5066241;28;20479;-69
2021/04/16 09:15:21;;;;;;;9.43;5.78;;;11.20;99.90;;;;;;5059494;28;20105;-68
2021/04/16 09:18:11;;;;;;;7.07;4.45;;;11.20;99.90;;;;;;5070590;28;20423;-69
2021/04/16 09:20:36;;;;;;;8.88;4.28;;;11.40;99.90;;;;;;5069484;28;20032;-68
2021/04/16 09:23:17;;;;;;;8.00;3.92;;;11.60;99.90;;;;;;5066912;28;20382;-69
2021/04/16 09:25:50;;;;;;;8.80;4.47;;;11.60;99.90;;;;;;5071753;28;20017;-68
2021/04/16 09:28:21;;;;;;;6.88;4.10;;;11.70;99.90;;;;;;5067097;28;21164;-68
2021/04/16 09:30:48;;;;;;;4.80;3.47;;;11.60;99.90;;;;;;5064401;28;20025;-68
2021/04/16 09:33:26;;;;;;;5.53;2.80;;;11.60;98.70;;;;;;5068360;28;20025;-68
2021/04/16 09:35:58;;;;;;;4.35;3.10;;;11.50;97.70;;;;;;5074806;28;20388;-68
2021/04/16 09:38:23;;;;;;;4.90;2.70;;;11.60;97.90;;;;;;5067330;28;20089;-68
2021/04/16 09:41:13;;;;;;;4.30;3.40;;;11.70;96.90;;;;;;5073520;28;20540;-68
2021/04/16 09:43:41;;;;;;;6.15;3.35;;;11.80;97.20;;;;;;5068203;28;20140;-68
2021/04/16 09:46:25;;;;;;;4.53;3.67;;;11.80;97.20;;;;;;5077693;28;20024;-69
2021/04/16 09:48:52;;;;;;;4.78;2.80;;;11.90;96.00;;;;;;5069131;28;20055;-68
2021/04/16 09:51:42;;;;;;;4.97;2.15;;;11.90;96.60;;;;;;5072705;28;20032;-69
2021/04/16 09:54:13;;;;;;;4.18;2.92;;;12.20;95.40;;;;;;5072855;28;20110;-68
2021/04/16 09:57:01;;;;;;;7.30;3.10;;;12.20;96.00;;;;;;5073670;28;20044;-68
2021/04/16 09:59:31;;;;;;;6.03;3.08;;;12.40;94.70;;;;;;5075035;28;20025;-68
2021/04/16 10:02:16;;;;;;;2.88;2.50;;;12.30;93.50;;;;;;5066233;28;20077;-68
2021/04/16 10:04:50;;;;;;;3.88;2.35;;;12.20;91.50;;;;;;5065846;28;20402;-68
2021/04/16 10:07:22;;;;;;;4.00;2.88;;;12.30;93.30;;;;;;5066072;28;20035;-70
2021/04/16 10:09:48;;;;;;;4.35;2.70;;;12.50;92.30;;;;;;5077706;28;20024;-68
2021/04/16 10:12:31;;;;;;;4.32;2.67;;;12.60;93.50;;;;;;5072369;28;20036;-71
2021/04/16 10:14:57;;;;;;;;;;;12.60;92.50;;;;;;5074012;28;20040;-68
2021/04/16 10:17:25;;;;;;;5.25;2.58;;;12.60;91.50;;;;;;5074851;28;19908;-68
2021/04/16 10:19:53;;;;;;;3.58;2.50;;;12.90;92.30;;;;;;5068033;28;20051;-68
2021/04/16 10:22:32;;;;;;;3.63;2.72;;;13.10;93.70;;;;;;5072881;28;20020;-68
2021/04/16 10:55:14;;;;;;;3.05;2.30;;;13.60;85.00;;;;;;5075628;28;20097;-69
2021/04/16 12:38:45;;;;;;;2.97;1.95;;;14.30;72.60;;;;;;5070370;28;20150;-68
2021/04/16 12:41:18;;;;;;;2.30;2.00;;;14.30;72.40;;;;;;5073292;28;20028;-68
2021/04/16 12:43:46;;;;;;;2.83;2.05;;;14.30;74.40;;;;;;5066133;28;20496;-68
2021/04/16 12:46:16;;;;;;;3.15;2.20;;;14.30;71.60;;;;;;5070201;28;20530;-68
2021/04/16 12:48:41;;;;;;;2.65;2.10;;;14.30;71.80;;;;;;5067674;28;20028;-68
2021/04/16 12:51:07;;;;;;;5.53;2.20;;;14.60;73.00;;;;;;5065079;28;20033;-68
2021/04/16 12:53:32;;;;;;;3.35;2.05;;;14.60;72.00;;;;;;5069072;28;20056;-69
2021/04/16 12:55:58;;;;;;;3.47;2.28;;;14.80;72.40;;;;;;5076209;28;20064;-68
2021/04/16 12:58:30;;;;;;;3.05;2.33;;;14.90;70.70;;;;;;5066524;28;20382;-69
2021/04/16 13:00:57;;;;;;;2.20;2.00;;;14.80;68.40;;;;;;5066817;28;20085;-68
2021/04/16 13:03:43;;;;;;;1.58;1.48;;;15.00;68.80;;;;;;5069829;28;20073;-69
2021/04/16 13:06:25;;;;;;;6.13;2.30;;;15.10;70.20;;;;;;5062019;28;20033;-68
2021/04/16 13:08:53;;;;;;;2.55;2.10;;;15.20;69.30;;;;;;5063042;28;20034;-68
2021/04/16 13:11:20;;;;;;;3.17;2.17;;;15.30;73.30;;;;;;5070018;28;20017;-68
2021/04/16 13:13:45;;;;;;;5.50;1.67;;;15.30;69.70;;;;;;5064021;28;20021;-68
2021/04/16 13:16:11;;;;;;;4.53;2.08;;;15.30;68.00;;;;;;5074865;28;20023;-68
2021/04/16 13:18:59;;;;;;;5.35;2.42;;;15.30;68.70;;;;;;5064555;28;20032;-68
2021/04/16 13:21:34;;;;;;;2.85;2.00;;;14.70;67.10;;;;;;5067489;28;20051;-68
2021/04/16 13:24:00;;;;;;;2.78;1.95;;;14.60;66.50;;;;;;5057160;28;20385;-68
2021/04/16 13:26:26;;;;;;;3.40;2.63;;;14.50;68.10;;;;;;5074317;28;20032;-68
2021/04/16 13:28:53;;;;;;;3.55;1.92;;;14.70;72.00;;;;;;5074896;28;20498;-68
2021/04/16 13:31:19;;;;;;;3.53;1.90;;;14.70;71.30;;;;;;5072418;28;20024;-68
2021/04/16 13:33:47;;;;;;;3.08;2.10;;;14.70;72.00;;;;;;5054717;28;20397;-68
2021/04/16 13:36:16;;;;;;;3.03;1.80;;;14.80;68.10;;;;;;5068544;28;20268;-68
2021/04/16 13:38:42;;;;;;;6.32;2.42;;;14.90;67.90;;;;;;5070172;28;20029;-68
2021/04/16 13:41:09;;;;;;;3.33;2.00;;;15.10;70.70;;;;;;5073391;28;20051;-67
2021/04/16 13:43:35;;;;;;;2.97;2.40;;;15.30;71.00;;;;;;5070453;28;20100;-68
2021/04/16 13:46:06;;;;;;;2.85;2.20;;;15.30;69.70;;;;;;5068178;28;20546;-68
2021/04/16 13:48:32;;;;;;;3.75;2.20;;;15.40;68.50;;;;;;5065127;28;20158;-68
2021/04/16 13:50:58;;;;;;;2.15;1.88;;;15.30;67.50;;;;;;5069879;28;20108;-68
2021/04/16 13:53:24;;;;;;;2.63;2.08;;;15.20;71.50;;;;;;5065577;28;20104;-68
2021/04/16 13:55:50;;;;;;;3.65;2.20;;;15.20;65.50;;;;;;5069783;28;20032;-68
2021/04/16 13:58:16;;;;;;;2.42;2.22;;;15.00;66.40;;;;;;5071506;28;20017;-68
2021/04/16 14:00:42;;;;;;;4.32;2.20;;;15.10;68.20;;;;;;5068199;28;20016;-68
2021/04/16 14:03:12;;;;;;;2.97;2.47;;;15.30;66.10;;;;;;5063676;28;20040;-69
2021/04/16 14:05:38;;;;;;;2.97;2.63;;;15.20;64.90;;;;;;5069859;28;20024;-68
2021/04/16 14:08:04;;;;;;;4.07;2.00;;;15.10;67.20;;;;;;5068291;28;20036;-68
2021/04/16 14:10:32;;;;;;;3.95;2.60;;;14.90;67.40;;;;;;5074282;28;20024;-68
2021/04/16 14:12:58;;;;;;;5.50;2.35;;;14.70;67.00;;;;;;5075701;28;20560;-67
2021/04/16 14:15:23;;;;;;;2.38;2.17;;;14.90;66.70;;;;;;5067669;28;20100;-67
2021/04/16 14:17:56;;;;;;;4.32;2.10;;;15.00;69.40;;;;;;5073310;28;20114;-68
2021/04/16 14:20:36;;;;;;;6.72;2.38;;;15.10;69.30;;;;;;5067573;28;20360;-68
2021/04/16 14:23:04;;;;;;;2.40;2.10;;;15.30;69.60;;;;;;5066056;28;20039;-69
2021/04/16 14:25:35;;;;;;;3.08;1.60;;;15.30;66.60;;;;;;5062205;28;20025;-69
2021/04/16 14:28:01;;;;;;;4.18;2.20;;;15.10;63.80;;;;;;5070681;28;20025;-68
2021/04/16 14:30:30;;;;;;;4.30;1.92;;;14.80;64.20;;;;;;5064419;28;20028;-68
2021/04/16 14:32:58;;;;;;;13.15;2.55;;;14.90;67.00;;;;;;5067033;28;20507;-70
2021/04/16 14:35:26;;;;;;;5.90;2.10;;;14.90;64.50;;;;;;5069263;28;20151;-69
2021/04/16 14:37:53;;;;;;;2.65;1.75;;;15.00;64.50;;;;;;5063616;28;20021;-69
2021/04/16 14:40:19;;;;;;;2.10;1.77;;;14.90;64.40;;;;;;5071496;28;20069;-69
2021/04/16 14:42:45;;;;;;;1.65;1.48;;;15.00;65.00;;;;;;5066241;28;20017;-68
2021/04/16 14:45:15;;;;;;;4.40;2.10;;;15.00;62.70;;;;;;5066974;28;20020;-70
2021/04/16 14:47:41;;;;;;;2.22;1.90;;;14.80;65.20;;;;;;5066459;28;20532;-69
2021/04/16 14:50:09;;;;;;;5.38;2.15;;;14.90;63.80;;;;;;5067420;28;20175;-69
2021/04/16 14:52:36;;;;;;;3.33;1.95;;;14.90;64.70;;;;;;5070353;28;20059;-69
2021/04/16 14:55:06;;;;;;;3.13;1.63;;;14.90;64.40;;;;;;5075590;28;20055;-69
2021/04/16 14:57:37;;;;;;;4.53;2.03;;;15.00;64.70;;;;;;5070113;28;20043;-69
2021/04/16 15:00:24;;;;;;;6.18;2.45;;;15.10;65.60;;;;;;5070251;28;20099;-69
2021/04/16 15:02:50;;;;;;;4.90;2.20;;;15.10;67.90;;;;;;5072652;28;20024;-69
2021/04/16 15:05:18;;;;;;;2.88;2.15;;;15.20;68.20;;;;;;5076901;28;20496;-69
2021/04/16 15:08:00;;;;;;;2.17;1.98;;;15.10;65.90;;;;;;5074700;28;20020;-69
2021/04/16 15:10:32;;;;;;;4.35;2.25;;;14.80;65.30;;;;;;5074742;28;20472;-69
2021/04/16 15:12:58;;;;;;;4.88;2.63;;;14.80;67.50;;;;;;5072682;28;20044;-69
2021/04/16 15:15:24;;;;;;;6.30;2.40;;;14.90;68.00;;;;;;5072070;28;20028;-69
2021/04/16 15:17:51;;;;;;;3.50;2.13;;;14.70;68.00;;;;;;5073689;28;20020;-69